Time;durP1;ratioP1;P1;durP2;ratioP2;P2;SDS_P1;SDS_P2;PMS_P1;PMS_P2;Temp;Humidity;BMP_temperature;BMP_pressure;BME280_temperature;BME280_humidity;BME280_pressure;Samples;Min_cycle;Max_cycle;Signal;HPM_P1;HPM_P2
2023/07/12 00:00:27;;;;;;;4.50;4.20;;;19.90;99.90;;;;;;5035442;28;20495;-78
2023/07/12 00:02:54;;;;;;;4.70;4.10;;;19.90;99.90;;;;;;5034360;28;20493;-77
2023/07/12 00:05:22;;;;;;;4.30;3.83;;;19.90;99.90;;;;;;5034190;28;20868;-77
2023/07/12 00:07:48;;;;;;;6.90;5.40;;;19.90;99.90;;;;;;5035028;28;20457;-77
2023/07/12 00:10:21;;;;;;;5.73;4.40;;;20.00;99.90;;;;;;5034656;28;20448;-77
2023/07/12 00:12:48;;;;;;;5.20;4.57;;;20.00;99.90;;;;;;5034264;28;20858;-78
2023/07/12 00:15:18;;;;;;;5.00;4.60;;;20.00;99.90;;;;;;5034873;28;20473;-77
2023/07/12 00:17:46;;;;;;;4.97;3.73;;;20.00;99.90;;;;;;5034331;28;20534;-77
2023/07/12 00:20:24;;;;;;;4.23;3.80;;;20.10;99.90;;;;;;5034845;28;20830;-78
2023/07/12 00:22:52;;;;;;;4.47;4.07;;;20.10;99.90;;;;;;5033907;28;20952;-77
2023/07/12 00:25:19;;;;;;;4.60;4.20;;;20.10;99.90;;;;;;5034477;28;20449;-78
2023/07/12 00:27:47;;;;;;;5.17;4.00;;;20.20;99.90;;;;;;5033661;28;20445;-77
2023/07/12 00:30:18;;;;;;;5.23;4.20;;;20.10;99.90;;;;;;5033778;28;20453;-77
2023/07/12 00:32:48;;;;;;;4.20;3.73;;;20.10;99.90;;;;;;5034704;28;20509;-77
2023/07/12 00:35:17;;;;;;;4.70;4.40;;;20.10;99.90;;;;;;5033906;28;20554;-77
2023/07/12 00:37:44;;;;;;;3.87;3.57;;;20.00;99.90;;;;;;5033546;28;20999;-77
2023/07/12 00:40:22;;;;;;;4.77;4.13;;;20.00;99.90;;;;;;5033673;28;20906;-77
2023/07/12 00:42:55;;;;;;;4.67;4.27;;;20.00;99.90;;;;;;5033677;28;21239;-77
2023/07/12 00:45:21;;;;;;;4.13;3.83;;;20.00;99.90;;;;;;5033514;28;20775;-78
2023/07/12 00:47:50;;;;;;;4.10;3.80;;;20.00;99.90;;;;;;5033558;28;20464;-78
2023/07/12 00:50:18;;;;;;;5.80;3.77;;;20.00;99.90;;;;;;5033550;28;20454;-77
2023/07/12 00:52:45;;;;;;;4.60;4.27;;;20.00;99.90;;;;;;5033206;28;21005;-78
2023/07/12 00:55:54;;;;;;;4.50;4.20;;;20.00;99.90;;;;;;5033374;28;20474;-78
2023/07/12 00:58:23;;;;;;;4.47;4.07;;;20.00;99.90;;;;;;5033919;28;20501;-77
2023/07/12 01:00:51;;;;;;;5.87;3.73;;;20.00;99.90;;;;;;5033984;28;20445;-77
2023/07/12 01:03:21;;;;;;;4.93;4.43;;;20.10;99.90;;;;;;5032731;28;20463;-78
2023/07/12 01:05:48;;;;;;;4.50;4.10;;;20.10;99.90;;;;;;5033415;28;20482;-78
2023/07/12 01:08:15;;;;;;;3.97;3.70;;;20.30;99.90;;;;;;5033234;28;20537;-78
2023/07/12 01:10:42;;;;;;;3.60;3.30;;;20.10;99.90;;;;;;5033300;28;20461;-77
2023/07/12 01:13:10;;;;;;;4.50;3.87;;;20.10;99.90;;;;;;5032801;28;20533;-76
2023/07/12 01:15:38;;;;;;;3.70;3.33;;;20.10;99.90;;;;;;5033200;28;20489;-78
2023/07/12 01:18:06;;;;;;;3.90;3.60;;;20.10;99.90;;;;;;5032922;28;20449;-77
2023/07/12 01:20:36;;;;;;;6.80;3.60;;;20.10;99.90;;;;;;5034083;28;20458;-78
2023/07/12 01:23:05;;;;;;;4.80;3.80;;;20.10;99.90;;;;;;5052407;28;20437;-78
2023/07/12 01:25:38;;;;;;;6.80;3.70;;;20.10;99.90;;;;;;5053103;28;20456;-77
2023/07/12 01:28:05;;;;;;;3.40;3.10;;;20.10;99.90;;;;;;5064274;28;21001;-78
2023/07/12 01:30:33;;;;;;;3.63;3.43;;;20.10;99.90;;;;;;5069709;28;20446;-78
2023/07/12 01:33:00;;;;;;;4.70;2.97;;;20.10;99.90;;;;;;5065958;28;20488;-77
2023/07/12 01:35:27;;;;;;;4.23;3.83;;;20.10;99.90;;;;;;5061892;28;20536;-77
2023/07/12 01:37:54;;;;;;;3.50;3.30;;;20.10;99.90;;;;;;5052914;28;20448;-78
2023/07/12 01:40:22;;;;;;;3.13;2.93;;;20.10;99.90;;;;;;5052005;28;20449;-78
2023/07/12 01:42:49;;;;;;;4.10;3.53;;;20.10;99.90;;;;;;5051778;28;20456;-78
2023/07/12 01:45:16;;;;;;;3.57;3.27;;;20.10;99.90;;;;;;5052045;28;20527;-78
2023/07/12 01:47:43;;;;;;;4.17;3.60;;;20.10;99.90;;;;;;5052534;28;20488;-77
2023/07/12 01:50:10;;;;;;;3.93;3.53;;;20.10;99.90;;;;;;5052406;28;20452;-77
2023/07/12 01:52:37;;;;;;;3.90;3.57;;;20.00;99.90;;;;;;5051901;28;20448;-77
2023/07/12 01:55:04;;;;;;;3.40;2.90;;;20.00;99.90;;;;;;5052382;28;20779;-77
2023/07/12 01:57:32;;;;;;;4.37;2.97;;;20.00;99.90;;;;;;5052687;28;20456;-78
2023/07/12 01:59:58;;;;;;;3.33;3.03;;;20.00;99.90;;;;;;5052100;28;20451;-78
2023/07/12 02:02:28;;;;;;;3.10;2.83;;;20.00;99.90;;;;;;5052680;28;20442;-78
2023/07/12 02:04:55;;;;;;;3.63;3.27;;;20.00;99.90;;;;;;5051663;28;20459;-79
2023/07/12 02:07:21;;;;;;;3.40;3.10;;;20.00;99.90;;;;;;5052244;28;20499;-78
2023/07/12 02:10:11;;;;;;;4.03;3.10;;;20.00;99.90;;;;;;5051817;28;20439;-78
2023/07/12 02:12:39;;;;;;;3.73;3.43;;;20.10;99.90;;;;;;5052110;28;20919;-78
2023/07/12 02:15:06;;;;;;;4.13;3.60;;;20.10;99.90;;;;;;5051781;28;20475;-79
2023/07/12 02:17:33;;;;;;;5.17;3.20;;;20.00;99.90;;;;;;5052099;28;20436;-78
2023/07/12 02:20:00;;;;;;;4.47;3.03;;;20.00;99.90;;;;;;5051465;28;20486;-77
2023/07/12 02:22:29;;;;;;;3.83;3.40;;;20.00;99.90;;;;;;5051805;28;20445;-78
2023/07/12 02:24:55;;;;;;;4.50;3.90;;;20.00;99.90;;;;;;5051622;28;20465;-77
2023/07/12 02:27:22;;;;;;;3.67;3.47;;;20.00;99.90;;;;;;5051578;28;20519;-77
2023/07/12 02:29:50;;;;;;;3.67;3.37;;;20.00;99.90;;;;;;5051490;28;20453;-79
2023/07/12 02:32:17;;;;;;;4.70;3.37;;;20.00;99.90;;;;;;5051824;28;20462;-77
2023/07/12 02:34:44;;;;;;;3.83;3.27;;;20.10;99.90;;;;;;5051522;28;20977;-78
2023/07/12 02:37:10;;;;;;;3.87;3.57;;;20.10;99.90;;;;;;5051935;28;20498;-77
2023/07/12 02:39:37;;;;;;;4.10;3.80;;;20.10;99.90;;;;;;5051876;28;20453;-77
2023/07/12 02:42:04;;;;;;;4.40;4.10;;;20.10;99.90;;;;;;5052066;28;20539;-77
2023/07/12 02:44:31;;;;;;;4.23;3.83;;;20.00;99.90;;;;;;5051588;28;20504;-79
2023/07/12 02:46:59;;;;;;;4.60;4.20;;;20.00;99.90;;;;;;5051123;28;20574;-78
2023/07/12 02:49:26;;;;;;;6.47;4.30;;;20.30;99.90;;;;;;5051423;28;20445;-78
2023/07/12 02:51:52;;;;;;;3.83;3.53;;;20.00;99.90;;;;;;5051005;28;20778;-77
2023/07/12 02:54:19;;;;;;;3.90;3.50;;;19.90;99.90;;;;;;5051516;28;20471;-78
2023/07/12 02:56:46;;;;;;;4.30;3.90;;;19.90;99.90;;;;;;5051227;28;20444;-78
2023/07/12 02:59:12;;;;;;;4.30;3.90;;;20.00;99.90;;;;;;5051548;28;20440;-78
2023/07/12 03:01:40;;;;;;;5.13;4.63;;;20.00;99.90;;;;;;5051010;28;20984;-78
2023/07/12 03:04:09;;;;;;;3.80;3.43;;;20.00;99.90;;;;;;5050794;28;20460;-77
2023/07/12 03:06:36;;;;;;;6.10;4.53;;;20.00;99.90;;;;;;5050964;28;20897;-78
2023/07/12 03:09:04;;;;;;;4.43;4.10;;;20.00;99.90;;;;;;5050634;28;20912;-78
2023/07/12 03:11:31;;;;;;;3.90;3.57;;;20.00;99.90;;;;;;5050826;28;20506;-77
2023/07/12 03:13:58;;;;;;;4.30;3.90;;;20.00;99.90;;;;;;5050309;28;20468;-77
2023/07/12 03:16:25;;;;;;;5.63;3.97;;;20.00;99.90;;;;;;5051438;28;20429;-79
2023/07/12 03:18:53;;;;;;;5.50;4.20;;;20.00;99.90;;;;;;5051376;28;20466;-79
2023/07/12 03:21:21;;;;;;;6.07;4.40;;;20.00;99.90;;;;;;5050809;28;20475;-78
2023/07/12 03:23:49;;;;;;;4.50;3.27;;;20.30;99.90;;;;;;5051393;28;20971;-77
2023/07/12 03:26:16;;;;;;;4.50;4.10;;;20.00;99.90;;;;;;5051123;28;20443;-78
2023/07/12 03:28:42;;;;;;;4.00;3.30;;;20.00;99.90;;;;;;5051033;28;20546;-78
2023/07/12 03:31:13;;;;;;;4.80;4.03;;;20.00;99.90;;;;;;5050492;28;20955;-78
2023/07/12 03:33:40;;;;;;;3.80;3.50;;;20.00;99.90;;;;;;5051051;28;20500;-78
2023/07/12 03:36:07;;;;;;;3.70;3.40;;;20.00;99.90;;;;;;5050904;28;20445;-78
2023/07/12 03:38:35;;;;;;;5.63;3.87;;;20.00;99.90;;;;;;5066625;28;20432;-78
2023/07/12 03:41:04;;;;;;;5.40;4.13;;;20.00;99.90;;;;;;5076593;28;20441;-77
2023/07/12 03:43:31;;;;;;;4.87;3.80;;;20.00;99.90;;;;;;5073906;28;20561;-77
2023/07/12 03:45:57;;;;;;;4.00;3.70;;;20.00;99.90;;;;;;5073042;28;20448;-77
2023/07/12 03:48:25;;;;;;;6.17;3.87;;;20.00;99.90;;;;;;5073262;28;20476;-78
2023/07/12 03:50:55;;;;;;;4.83;4.40;;;20.00;99.90;;;;;;5074172;28;20453;-78
2023/07/12 03:53:22;;;;;;;4.73;4.30;;;20.00;99.90;;;;;;5073055;28;20474;-79
2023/07/12 03:55:50;;;;;;;5.30;4.80;;;20.00;99.90;;;;;;5075099;28;20458;-77
2023/07/12 03:58:19;;;;;;;8.37;4.87;;;20.10;99.90;;;;;;5074690;28;20437;-79
2023/07/12 04:00:48;;;;;;;4.83;3.90;;;20.30;99.90;;;;;;5054086;28;20575;-77
2023/07/12 04:03:15;;;;;;;4.97;4.37;;;20.00;99.90;;;;;;5051159;28;20471;-78
2023/07/12 04:05:42;;;;;;;7.53;6.80;;;20.10;99.90;;;;;;5055373;28;20444;-77
2023/07/12 04:08:12;;;;;;;6.67;4.50;;;20.10;99.90;;;;;;5058543;28;20475;-77
2023/07/12 04:10:39;;;;;;;8.33;3.97;;;20.10;99.90;;;;;;5057109;28;20489;-78
2023/07/12 04:13:07;;;;;;;6.10;4.90;;;20.10;99.90;;;;;;5055296;28;20467;-79
2023/07/12 04:15:35;;;;;;;5.80;4.20;;;20.10;99.90;;;;;;5056099;28;20461;-78
2023/07/12 04:18:02;;;;;;;11.47;4.03;;;20.20;99.90;;;;;;5057738;28;20847;-79
2023/07/12 04:20:28;;;;;;;4.60;4.20;;;20.20;99.90;;;;;;5055482;28;20888;-77
2023/07/12 04:22:55;;;;;;;5.90;4.90;;;20.20;99.90;;;;;;5053762;28;20445;-77
2023/07/12 04:25:22;;;;;;;4.80;4.40;;;20.20;99.90;;;;;;5053552;28;20451;-78
2023/07/12 04:27:48;;;;;;;6.50;4.40;;;20.30;99.90;;;;;;5053457;28;20889;-77
2023/07/12 04:30:17;;;;;;;5.60;4.43;;;20.30;99.90;;;;;;5055061;28;20955;-80
2023/07/12 04:32:47;;;;;;;5.40;4.53;;;20.40;99.90;;;;;;5056156;28;20481;-78
2023/07/12 04:35:14;;;;;;;5.17;4.67;;;20.40;99.90;;;;;;5056163;28;20465;-78
2023/07/12 04:37:45;;;;;;;5.60;4.10;;;20.50;99.90;;;;;;5056773;28;20445;-79
2023/07/12 04:40:12;;;;;;;7.20;4.33;;;20.50;99.90;;;;;;5053777;28;20651;-77
2023/07/12 04:42:39;;;;;;;9.13;4.30;;;20.60;99.90;;;;;;5053796;28;20452;-77
2023/07/12 04:45:07;;;;;;;8.07;5.07;;;20.60;99.90;;;;;;5053795;28;20460;-78
2023/07/12 04:47:35;;;;;;;5.53;4.80;;;20.70;99.90;;;;;;5053046;28;20476;-78
2023/07/12 04:50:03;;;;;;;5.23;4.73;;;20.70;99.90;;;;;;5053788;28;20459;-77
2023/07/12 04:52:30;;;;;;;11.33;5.13;;;20.80;99.90;;;;;;5053670;28;20451;-77
2023/07/12 04:54:58;;;;;;;4.40;3.97;;;20.80;99.90;;;;;;5053456;28;20509;-77
2023/07/12 04:57:25;;;;;;;5.60;4.77;;;20.90;99.90;;;;;;5052584;28;20850;-78
2023/07/12 04:59:52;;;;;;;5.10;4.73;;;20.90;99.90;;;;;;5053636;28;20944;-77
2023/07/12 05:02:18;;;;;;;6.43;4.47;;;21.00;99.90;;;;;;5053403;28;20440;-78
2023/07/12 05:04:47;;;;;;;5.93;4.70;;;21.10;99.90;;;;;;5052484;28;20973;-77
2023/07/12 05:07:13;;;;;;;6.20;4.70;;;21.10;99.90;;;;;;5054151;28;20491;-78
2023/07/12 05:09:40;;;;;;;5.87;4.47;;;21.10;99.90;;;;;;5056970;28;20456;-78
2023/07/12 05:12:08;;;;;;;5.00;4.30;;;21.20;99.90;;;;;;5052755;28;20489;-76
2023/07/12 05:14:35;;;;;;;5.47;4.00;;;21.30;99.90;;;;;;5052400;28;20467;-77
2023/07/12 05:17:03;;;;;;;6.47;4.20;;;21.30;99.90;;;;;;5052702;28;20450;-78
2023/07/12 05:19:30;;;;;;;6.50;4.93;;;21.30;99.90;;;;;;5059492;28;20514;-77
2023/07/12 05:21:58;;;;;;;7.33;4.80;;;21.30;99.90;;;;;;5070479;28;20436;-76
2023/07/12 05:24:24;;;;;;;12.67;6.10;;;21.40;99.90;;;;;;5071108;28;20476;-76
2023/07/12 05:26:51;;;;;;;6.23;4.87;;;21.40;99.90;;;;;;5073129;28;20436;-76
2023/07/12 05:29:18;;;;;;;8.83;4.70;;;21.50;99.90;;;;;;5074590;28;20437;-76
2023/07/12 05:31:44;;;;;;;7.23;5.30;;;21.50;99.90;;;;;;5071647;28;20455;-76
2023/07/12 05:34:11;;;;;;;9.50;5.80;;;21.60;99.90;;;;;;5052609;28;20461;-77
2023/07/12 05:36:38;;;;;;;5.73;4.83;;;21.60;99.90;;;;;;5052343;28;20437;-76
2023/07/12 05:39:06;;;;;;;5.87;5.40;;;21.60;99.90;;;;;;5052561;28;20442;-77
2023/07/12 05:41:33;;;;;;;5.73;5.13;;;21.70;99.90;;;;;;5053004;28;20814;-79
2023/07/12 05:43:59;;;;;;;5.93;5.33;;;21.70;99.90;;;;;;5052113;28;20569;-76
2023/07/12 05:46:27;;;;;;;12.37;6.27;;;21.80;99.90;;;;;;5052482;28;20521;-78
2023/07/12 05:48:53;;;;;;;6.40;5.53;;;21.80;99.90;;;;;;5052002;28;20490;-77
2023/07/12 05:51:21;;;;;;;8.33;5.57;;;21.80;99.90;;;;;;5052037;28;20544;-77
2023/07/12 05:53:48;;;;;;;5.20;4.50;;;21.80;99.90;;;;;;5052057;28;20582;-76
2023/07/12 05:56:16;;;;;;;7.47;5.37;;;21.80;99.90;;;;;;5052526;28;20441;-77
2023/07/12 05:58:43;;;;;;;6.27;5.33;;;21.80;99.90;;;;;;5052082;28;20446;-76
2023/07/12 06:01:09;;;;;;;6.63;5.90;;;21.90;99.90;;;;;;5052632;28;20438;-75
2023/07/12 06:03:37;;;;;;;8.30;6.03;;;21.90;99.90;;;;;;5051911;28;20467;-77
2023/07/12 06:06:06;;;;;;;11.13;6.60;;;22.00;99.90;;;;;;5052534;28;20502;-77
2023/07/12 06:08:33;;;;;;;5.97;5.40;;;22.10;99.90;;;;;;5052044;28;20603;-79
2023/07/12 06:11:00;;;;;;;6.80;5.90;;;22.30;99.90;;;;;;5052356;28;20475;-76
2023/07/12 06:13:28;;;;;;;6.10;5.50;;;22.30;99.90;;;;;;5051736;28;20925;-76
2023/07/12 06:15:55;;;;;;;6.53;5.87;;;22.30;99.90;;;;;;5052137;28;20458;-76
2023/07/12 06:18:22;;;;;;;9.63;5.97;;;22.40;99.90;;;;;;5053180;28;20782;-76
2023/07/12 06:20:55;;;;;;;9.47;5.90;;;22.40;99.90;;;;;;5052104;28;20446;-76
2023/07/12 06:23:22;;;;;;;6.40;5.80;;;22.40;99.90;;;;;;5052287;28;20461;-77
2023/07/12 06:25:48;;;;;;;6.33;5.53;;;22.40;99.90;;;;;;5053097;28;20441;-76
2023/07/12 06:28:15;;;;;;;9.67;6.80;;;22.40;99.90;;;;;;5052106;28;20477;-76
2023/07/12 06:30:43;;;;;;;6.83;6.13;;;22.50;99.90;;;;;;5052345;28;20798;-77
2023/07/12 06:33:10;;;;;;;6.53;5.60;;;22.60;99.90;;;;;;5053767;28;20450;-78
2023/07/12 06:35:37;;;;;;;6.67;5.80;;;22.60;99.90;;;;;;5052534;28;20442;-78
2023/07/12 06:38:04;;;;;;;7.13;5.30;;;22.70;99.90;;;;;;5052218;28;20453;-79
2023/07/12 06:40:30;;;;;;;6.57;5.80;;;22.80;99.90;;;;;;5051403;28;20445;-78
2023/07/12 06:42:57;;;;;;;11.17;6.07;;;23.00;99.90;;;;;;5050683;28;20472;-77
2023/07/12 06:45:24;;;;;;;5.80;5.30;;;23.20;99.90;;;;;;5051443;28;20451;-77
2023/07/12 06:47:52;;;;;;;7.67;5.13;;;23.40;99.90;;;;;;5051858;28;20837;-77
2023/07/12 06:50:19;;;;;;;8.80;6.50;;;23.50;99.90;;;;;;5052021;28;20480;-76
2023/07/12 06:52:46;;;;;;;6.53;5.40;;;23.60;99.90;;;;;;5051602;28;20446;-77
2023/07/12 06:55:12;;;;;;;5.80;5.30;;;23.60;99.90;;;;;;5050879;28;20454;-78
2023/07/12 06:57:39;;;;;;;6.33;5.73;;;23.80;99.90;;;;;;5050708;28;20438;-78
2023/07/12 07:00:08;;;;;;;7.20;6.00;;;24.00;99.90;;;;;;5051244;28;20445;-76
2023/07/12 07:02:35;;;;;;;6.10;5.33;;;24.10;99.90;;;;;;5050837;28;20442;-77
2023/07/12 07:05:05;;;;;;;8.30;5.50;;;24.20;99.90;;;;;;5050814;28;20536;-78
2023/07/12 07:07:31;;;;;;;9.20;5.67;;;24.30;99.90;;;;;;5050467;28;20439;-78
2023/07/12 07:09:58;;;;;;;6.13;5.43;;;24.20;99.90;;;;;;5050899;28;20996;-77
2023/07/12 07:12:25;;;;;;;5.47;4.97;;;24.20;99.90;;;;;;5050646;28;20449;-79
2023/07/12 07:14:52;;;;;;;6.70;5.07;;;24.30;99.90;;;;;;5050610;28;20920;-77
2023/07/12 07:17:19;;;;;;;10.20;5.40;;;24.40;99.90;;;;;;5051390;28;20449;-78
2023/07/12 07:19:45;;;;;;;6.10;5.50;;;24.40;99.90;;;;;;5051436;28;20438;-78
2023/07/12 07:22:13;;;;;;;9.20;5.70;;;24.60;99.90;;;;;;5051196;28;20438;-77
2023/07/12 07:24:40;;;;;;;6.83;5.30;;;24.50;99.90;;;;;;5050420;28;20520;-76
2023/07/12 07:27:07;;;;;;;6.87;4.90;;;24.60;99.90;;;;;;5051177;28;20441;-77
2023/07/12 07:29:35;;;;;;;6.50;5.90;;;24.60;99.90;;;;;;5050757;28;20474;-78
2023/07/12 07:32:01;;;;;;;4.93;4.53;;;24.70;99.90;;;;;;5051092;28;20452;-78
2023/07/12 07:34:28;;;;;;;5.93;5.40;;;24.80;99.90;;;;;;5050492;28;20466;-78
2023/07/12 07:36:55;;;;;;;6.00;4.43;;;24.90;99.90;;;;;;5050748;28;20495;-77
2023/07/12 07:39:23;;;;;;;6.00;4.17;;;24.80;99.90;;;;;;5054192;28;20438;-76
2023/07/12 07:41:49;;;;;;;5.97;4.80;;;24.90;99.90;;;;;;5054837;28;20449;-77
2023/07/12 07:44:16;;;;;;;5.23;4.30;;;25.00;99.90;;;;;;5054477;28;20466;-77
2023/07/12 07:46:43;;;;;;;5.00;4.60;;;24.90;99.90;;;;;;5054952;28;20760;-78
2023/07/12 07:49:09;;;;;;;4.73;4.40;;;24.80;99.90;;;;;;5054634;28;20496;-77
2023/07/12 07:51:36;;;;;;;6.37;4.20;;;24.90;99.90;;;;;;5054347;28;21129;-77
2023/07/12 07:54:03;;;;;;;5.13;3.93;;;25.20;99.90;;;;;;5053857;28;20469;-77
2023/07/12 07:56:31;;;;;;;4.67;4.23;;;25.30;99.90;;;;;;5054094;28;20959;-78
2023/07/12 07:58:59;;;;;;;5.63;4.70;;;25.40;99.90;;;;;;5054432;28;20438;-77
2023/07/12 08:01:26;;;;;;;5.33;4.60;;;25.50;99.90;;;;;;5054300;28;20450;-76
2023/07/12 08:03:52;;;;;;;5.47;4.40;;;25.50;99.90;;;;;;5053744;28;20466;-77
2023/07/12 08:06:19;;;;;;;4.93;4.43;;;25.60;99.90;;;;;;5054483;28;20463;-77
2023/07/12 08:08:47;;;;;;;6.20;4.33;;;25.70;99.90;;;;;;5053646;28;21046;-78
2023/07/12 08:11:14;;;;;;;7.37;4.27;;;25.90;99.90;;;;;;5054129;28;20441;-76
2023/07/12 08:13:42;;;;;;;8.17;3.97;;;25.90;99.90;;;;;;5053493;28;21266;-75
2023/07/12 08:16:08;;;;;;;6.03;3.80;;;25.90;99.90;;;;;;5053933;28;20457;-77
2023/07/12 08:18:38;;;;;;;5.07;3.90;;;25.90;99.90;;;;;;5053650;28;20567;-76
2023/07/12 08:21:05;;;;;;;4.30;4.00;;;25.70;99.90;;;;;;5053813;28;20445;-76
2023/07/12 08:23:31;;;;;;;4.00;3.70;;;25.90;99.90;;;;;;5053481;28;20993;-76
2023/07/12 08:25:58;;;;;;;4.13;3.83;;;25.90;99.90;;;;;;5055147;28;20464;-76
2023/07/12 08:28:25;;;;;;;4.50;4.10;;;25.70;99.90;;;;;;5056166;28;20493;-77
2023/07/12 08:30:53;;;;;;;5.00;4.23;;;25.90;99.90;;;;;;5059342;28;20465;-78
2023/07/12 08:33:20;;;;;;;6.10;4.10;;;25.90;99.90;;;;;;5060153;28;20457;-79
2023/07/12 08:35:47;;;;;;;6.43;4.07;;;26.10;99.90;;;;;;5060445;28;20451;-77
2023/07/12 08:38:14;;;;;;;4.70;4.20;;;26.30;99.90;;;;;;5069727;28;20945;-77
2023/07/12 08:40:45;;;;;;;6.90;4.60;;;26.40;99.90;;;;;;5068952;28;20457;-77
2023/07/12 08:43:16;;;;;;;5.80;4.00;;;26.50;99.90;;;;;;5064927;28;20499;-78
2023/07/12 08:45:45;;;;;;;5.40;4.00;;;26.70;99.90;;;;;;5057754;28;20449;-78
2023/07/12 08:48:18;;;;;;;5.70;4.30;;;26.80;99.90;;;;;;5059279;28;20499;-78
2023/07/12 08:50:46;;;;;;;4.43;4.03;;;26.50;99.90;;;;;;5055037;28;20456;-78
2023/07/12 08:53:18;;;;;;;4.37;3.67;;;26.70;99.90;;;;;;5057033;28;20474;-78
2023/07/12 08:55:45;;;;;;;6.00;3.70;;;26.90;99.90;;;;;;5057361;28;20430;-78
2023/07/12 08:58:19;;;;;;;3.87;3.47;;;26.90;99.90;;;;;;5058786;28;20492;-78
2023/07/12 09:00:48;;;;;;;4.87;4.17;;;26.90;99.90;;;;;;5057875;28;20544;-79
2023/07/12 09:03:16;;;;;;;4.23;3.93;;;27.10;99.90;;;;;;5057150;28;20462;-79
2023/07/12 09:05:43;;;;;;;4.17;3.77;;;27.30;99.90;;;;;;5057532;28;20473;-78
2023/07/12 09:08:18;;;;;;;5.10;4.30;;;27.30;99.90;;;;;;5060232;28;20523;-79
2023/07/12 09:10:48;;;;;;;6.43;3.73;;;27.20;99.90;;;;;;5058788;28;20422;-78
2023/07/12 09:13:17;;;;;;;5.60;3.97;;;27.30;99.90;;;;;;5056293;28;20484;-78
2023/07/12 09:15:47;;;;;;;6.70;3.90;;;27.30;99.90;;;;;;5056346;28;20449;-79
2023/07/12 09:18:28;;;;;;;4.63;3.70;;;27.80;99.90;;;;;;5057283;28;20855;-78
2023/07/12 09:20:56;;;;;;;4.20;3.50;;;28.00;99.90;;;;;;5055303;28;20438;-78
2023/07/12 09:23:23;;;;;;;4.20;3.80;;;28.10;99.90;;;;;;5054487;28;20461;-79
2023/07/12 09:25:55;;;;;;;3.37;3.07;;;28.30;99.90;;;;;;5054308;28;20499;-79
2023/07/12 09:28:22;;;;;;;4.20;3.80;;;28.50;99.90;;;;;;5054611;28;20442;-78
2023/07/12 09:30:52;;;;;;;4.13;3.70;;;28.70;99.90;;;;;;5056543;28;20500;-78
2023/07/12 09:33:22;;;;;;;4.03;3.63;;;28.90;99.90;;;;;;5054981;28;21236;-79
2023/07/12 09:35:51;;;;;;;3.80;3.50;;;29.30;99.90;;;;;;5054255;28;20441;-77
2023/07/12 09:38:23;;;;;;;5.57;3.67;;;29.20;99.90;;;;;;5054985;28;20476;-78
2023/07/12 09:40:51;;;;;;;3.23;3.00;;;29.10;99.90;;;;;;5053505;28;20540;-78
2023/07/12 09:43:20;;;;;;;4.40;4.00;;;29.60;99.90;;;;;;5053328;28;20466;-78
2023/07/12 09:45:57;;;;;;;4.53;4.13;;;29.70;99.90;;;;;;5053392;28;20446;-77
2023/07/12 09:48:32;;;;;;;4.90;4.10;;;29.80;99.90;;;;;;5053570;28;20924;-77
2023/07/12 09:51:16;;;;;;;5.53;3.73;;;29.40;99.90;;;;;;5053154;28;20500;-77
2023/07/12 09:53:48;;;;;;;6.13;3.80;;;29.20;99.90;;;;;;5053461;28;20470;-78
2023/07/12 09:56:22;;;;;;;5.63;3.53;;;29.30;99.90;;;;;;5053854;28;20430;-77
2023/07/12 09:58:57;;;;;;;4.83;4.30;;;29.40;99.90;;;;;;5053463;28;20454;-77
2023/07/12 10:01:35;;;;;;;3.83;3.50;;;30.00;99.90;;;;;;5052578;28;20472;-76
2023/07/12 10:04:15;;;;;;;5.20;4.40;;;29.40;99.90;;;;;;5052408;28;20466;-77
2023/07/12 10:06:48;;;;;;;4.47;3.50;;;29.20;99.90;;;;;;5053211;28;20441;-78
2023/07/12 10:09:20;;;;;;;4.10;3.80;;;28.80;99.90;;;;;;5053642;28;20478;-80
2023/07/12 10:11:51;;;;;;;3.73;3.43;;;29.10;99.90;;;;;;5054102;28;20489;-80
2023/07/12 10:14:19;;;;;;;3.70;3.40;;;29.10;99.90;;;;;;5052902;28;20470;-78
2023/07/12 10:16:52;;;;;;;3.83;3.53;;;29.00;99.90;;;;;;5053235;28;20445;-78
2023/07/12 10:19:22;;;;;;;4.23;3.70;;;29.30;99.90;;;;;;5053752;28;20448;-78
2023/07/12 10:21:53;;;;;;;3.47;3.23;;;29.20;99.90;;;;;;5053092;28;20442;-78
2023/07/12 10:24:24;;;;;;;3.77;3.30;;;29.00;99.90;;;;;;5052738;28;20563;-77
2023/07/12 10:26:52;;;;;;;4.53;3.63;;;28.90;99.90;;;;;;5053065;28;20446;-77
2023/07/12 10:29:22;;;;;;;4.37;3.97;;;29.00;99.90;;;;;;5053238;28;20477;-78
2023/07/12 10:31:52;;;;;;;4.07;3.77;;;29.50;99.90;;;;;;5053951;28;20864;-79
2023/07/12 10:34:26;;;;;;;3.90;3.60;;;29.80;99.90;;;;;;5054386;28;20462;-77
2023/07/12 10:36:56;;;;;;;4.60;4.20;;;29.70;99.90;;;;;;5053301;28;20445;-79
2023/07/12 10:39:24;;;;;;;3.80;3.40;;;29.20;99.90;;;;;;5054659;28;20465;-77
2023/07/12 10:41:55;;;;;;;3.17;2.90;;;29.60;99.90;;;;;;5053995;28;20438;-78
2023/07/12 10:44:27;;;;;;;3.70;3.40;;;29.70;99.90;;;;;;5053856;28;20512;-78
2023/07/12 10:46:57;;;;;;;3.97;3.50;;;29.40;99.90;;;;;;5054184;28;20561;-78
2023/07/12 10:49:42;;;;;;;3.80;3.37;;;28.80;99.90;;;;;;5054913;28;20474;-80
2023/07/12 10:52:28;;;;;;;4.17;3.43;;;29.10;99.90;;;;;;5054484;28;20977;-78
2023/07/12 10:55:20;;;;;;;3.37;3.07;;;28.90;99.90;;;;;;5054773;28;20476;-77
2023/07/12 10:57:49;;;;;;;3.37;3.07;;;28.90;99.90;;;;;;5051966;28;20468;-79
2023/07/12 11:00:29;;;;;;;3.70;3.40;;;29.00;99.90;;;;;;5054066;28;20972;-80
2023/07/12 11:03:04;;;;;;;5.00;3.93;;;28.90;99.90;;;;;;5053454;28;20802;-77
2023/07/12 11:05:43;;;;;;;4.17;3.77;;;29.20;99.90;;;;;;5053183;28;20453;-79
2023/07/12 11:08:37;;;;;;;4.40;4.00;;;29.20;99.90;;;;;;5053689;28;20452;-79
2023/07/12 11:11:43;;;;;;;4.30;3.90;;;29.50;99.90;;;;;;5053410;28;20473;-77
2023/07/12 11:14:24;;;;;;;4.07;3.70;;;29.80;99.90;;;;;;5052374;28;20838;-76
2023/07/12 11:17:04;;;;;;;3.90;3.50;;;29.70;99.90;;;;;;5053236;28;20426;-77
2023/07/12 11:19:42;;;;;;;4.90;3.77;;;29.60;99.90;;;;;;5053175;28;20483;-80
2023/07/12 11:22:14;;;;;;;6.60;3.73;;;29.80;99.90;;;;;;5052954;28;20418;-80
2023/07/12 11:24:56;;;;;;;3.80;3.47;;;29.90;99.90;;;;;;5053158;28;20529;-78
2023/07/12 11:27:32;;;;;;;4.47;4.07;;;30.20;99.90;;;;;;5053573;28;20430;-77
2023/07/12 11:30:23;;;;;;;3.90;3.60;;;30.10;99.90;;;;;;5054367;28;20636;-79
2023/07/12 11:32:54;;;;;;;4.07;3.70;;;30.20;99.90;;;;;;5052790;28;20556;-79
2023/07/12 11:35:30;;;;;;;4.60;4.20;;;30.40;99.90;;;;;;5053082;28;20449;-77
2023/07/12 11:37:57;;;;;;;4.90;4.50;;;30.60;99.90;;;;;;5052693;28;20449;-77
2023/07/12 11:40:30;;;;;;;4.30;3.90;;;30.30;99.90;;;;;;5052958;28;20491;-77
2023/07/12 11:42:57;;;;;;;6.87;4.30;;;30.20;99.90;;;;;;5052875;28;20429;-79
2023/07/12 11:45:24;;;;;;;5.00;4.40;;;30.30;99.90;;;;;;5053977;28;20440;-79
2023/07/12 11:47:54;;;;;;;4.40;4.10;;;30.60;99.90;;;;;;5054003;28;20476;-78
2023/07/12 11:50:22;;;;;;;4.80;4.40;;;30.40;99.90;;;;;;5052672;28;20478;-78
2023/07/12 11:52:50;;;;;;;8.80;4.43;;;30.60;99.90;;;;;;5052595;28;20445;-78
2023/07/12 11:55:19;;;;;;;5.33;3.93;;;30.60;99.90;;;;;;5051970;28;20469;-77
2023/07/12 11:57:49;;;;;;;5.93;3.97;;;30.70;99.90;;;;;;5052591;28;20543;-78
2023/07/12 12:00:18;;;;;;;4.37;4.00;;;31.00;99.90;;;;;;5052005;28;20438;-79
2023/07/12 12:02:49;;;;;;;4.50;4.10;;;31.10;99.90;;;;;;5052654;28;20434;-78
2023/07/12 12:05:20;;;;;;;5.27;3.93;;;30.70;99.90;;;;;;5052759;28;20553;-78
2023/07/12 12:07:48;;;;;;;4.90;4.50;;;30.90;99.90;;;;;;5051484;28;20444;-76
2023/07/12 12:10:22;;;;;;;4.40;4.00;;;31.10;99.90;;;;;;5051986;28;20508;-78
2023/07/12 12:12:50;;;;;;;6.30;4.63;;;31.30;99.90;;;;;;5052671;28;20426;-77
2023/07/12 12:15:19;;;;;;;4.50;4.17;;;31.40;99.90;;;;;;5052176;28;20482;-77
2023/07/12 12:17:46;;;;;;;4.73;3.83;;;31.30;99.90;;;;;;5053941;28;20499;-78
2023/07/12 12:20:17;;;;;;;6.47;4.53;;;31.50;99.90;;;;;;5052539;28;20461;-77
2023/07/12 12:22:49;;;;;;;7.10;5.13;;;31.30;99.90;;;;;;5051538;28;20442;-78
2023/07/12 12:25:19;;;;;;;5.30;4.67;;;31.30;99.90;;;;;;5058236;28;20468;-76
2023/07/12 12:27:48;;;;;;;5.43;4.10;;;31.60;99.90;;;;;;5074904;28;20434;-76
2023/07/12 12:30:23;;;;;;;4.77;4.37;;;31.30;99.90;;;;;;5076756;28;20466;-75
2023/07/12 12:33:02;;;;;;;5.00;4.60;;;30.90;99.90;;;;;;5073865;28;20613;-76
2023/07/12 12:35:29;;;;;;;4.80;4.50;;;31.20;99.90;;;;;;5071913;28;20426;-77
2023/07/12 12:37:57;;;;;;;4.80;4.40;;;30.70;99.90;;;;;;5073038;28;20446;-77
2023/07/12 12:40:24;;;;;;;4.60;4.20;;;31.10;99.90;;;;;;5072815;28;20453;-77
2023/07/12 12:42:54;;;;;;;4.30;3.90;;;31.20;99.90;;;;;;5068747;28;20863;-77
2023/07/12 12:45:22;;;;;;;4.57;4.17;;;31.30;99.90;;;;;;5067204;28;20472;-76
2023/07/12 12:47:48;;;;;;;6.40;4.80;;;31.80;99.90;;;;;;5070076;28;20438;-77
2023/07/12 12:50:19;;;;;;;5.20;4.40;;;31.90;99.90;;;;;;5058391;28;20508;-78
2023/07/12 12:52:46;;;;;;;5.10;4.60;;;31.60;99.90;;;;;;5056706;28;20496;-78
2023/07/12 12:55:13;;;;;;;4.60;4.20;;;31.80;99.90;;;;;;5057525;28;20469;-77